createdAt,value
2023-05-09T00:01:45.161Z,13.93
2023-05-09T00:04:11.917Z,9.27
2023-05-09T00:06:38.927Z,9.52
2023-05-09T00:09:05.753Z,9.38
2023-05-09T00:11:32.507Z,8.80
2023-05-09T00:13:59.171Z,9.55
2023-05-09T00:16:25.947Z,8.82
2023-05-09T00:18:52.852Z,11.05
2023-05-09T00:21:19.700Z,8.02
2023-05-09T00:23:47.654Z,8.13
2023-05-09T00:26:14.402Z,8.27
2023-05-09T00:28:43.293Z,10.18
2023-05-09T00:31:10.207Z,9.15
2023-05-09T00:33:36.911Z,9.70
2023-05-09T00:36:04.127Z,9.45
2023-05-09T00:38:30.882Z,9.55
2023-05-09T00:40:57.584Z,8.73
2023-05-09T00:43:24.341Z,8.75
2023-05-09T00:45:51.425Z,8.98
2023-05-09T00:48:18.392Z,8.63
2023-05-09T00:50:46.240Z,10.23
2023-05-09T00:53:13.520Z,9.85
2023-05-09T00:55:40.539Z,9.68
2023-05-09T00:58:07.481Z,9.07
2023-05-09T01:00:34.186Z,9.23
2023-05-09T01:03:01.631Z,10.48
2023-05-09T01:05:40.598Z,10.75
2023-05-09T01:08:23.536Z,8.52
2023-05-09T01:11:08.988Z,9.82
2023-05-09T01:13:44.611Z,9.48
2023-05-09T01:16:26.397Z,9.32
2023-05-09T01:19:18.770Z,9.50
2023-05-09T01:21:48.323Z,11.38
2023-05-09T01:24:45.363Z,10.15
2023-05-09T01:27:32.856Z,9.90
2023-05-09T01:30:04.512Z,9.15
2023-05-09T01:32:33.748Z,11.33
2023-05-09T01:35:02.805Z,9.63
2023-05-09T01:37:32.723Z,10.00
2023-05-09T01:40:06.050Z,10.32
2023-05-09T01:42:41.517Z,10.13
2023-05-09T01:45:09.898Z,9.68
2023-05-09T01:47:39.760Z,10.82
2023-05-09T01:50:09.089Z,10.90
2023-05-09T01:52:37.103Z,9.25
2023-05-09T01:55:07.351Z,9.85
2023-05-09T01:57:35.764Z,11.18
2023-05-09T02:00:03.714Z,12.85
2023-05-09T02:02:40.319Z,14.00
2023-05-09T02:05:09.821Z,11.95
2023-05-09T02:07:38.743Z,14.07
2023-05-09T02:10:08.595Z,13.95
2023-05-09T02:12:37.463Z,12.50
2023-05-09T02:15:05.665Z,12.02
2023-05-09T02:17:32.847Z,13.18
2023-05-09T02:19:59.717Z,11.60
2023-05-09T02:22:26.825Z,11.65
2023-05-09T02:24:53.531Z,13.55
2023-05-09T02:27:21.633Z,16.13
2023-05-09T02:29:51.676Z,14.77
2023-05-09T02:32:27.025Z,14.35
2023-05-09T02:34:55.813Z,16.52
2023-05-09T02:37:24.334Z,15.13
2023-05-09T02:39:51.896Z,16.38
2023-05-09T02:42:22.871Z,14.38
2023-05-09T02:44:49.584Z,14.23
2023-05-09T02:47:16.509Z,14.63
2023-05-09T02:49:43.343Z,16.65
2023-05-09T02:52:11.011Z,16.55
2023-05-09T02:54:38.441Z,14.35
2023-05-09T02:57:05.502Z,16.30
2023-05-09T02:59:32.360Z,18.73
2023-05-09T03:02:01.882Z,16.67
2023-05-09T03:04:29.454Z,16.92
2023-05-09T03:06:56.302Z,15.45
2023-05-09T03:09:26.222Z,18.13
2023-05-09T03:11:52.988Z,17.58
2023-05-09T03:14:20.564Z,17.20
2023-05-09T03:16:47.444Z,14.98
2023-05-09T03:19:23.133Z,19.65
2023-05-09T03:21:50.001Z,18.15
2023-05-09T03:24:17.272Z,20.00
2023-05-09T03:26:44.230Z,20.73
2023-05-09T03:29:11.528Z,17.42
2023-05-09T03:31:39.046Z,16.42
2023-05-09T03:34:06.319Z,19.13
2023-05-09T03:36:33.309Z,18.45
2023-05-09T03:39:01.393Z,18.58
2023-05-09T03:41:28.221Z,18.40
2023-05-09T03:43:55.902Z,17.42
2023-05-09T03:46:22.699Z,17.65
2023-05-09T03:48:49.781Z,18.73
2023-05-09T03:51:17.216Z,19.42
2023-05-09T03:53:47.184Z,17.25
2023-05-09T03:56:15.328Z,18.85
2023-05-09T03:58:47.485Z,18.70
2023-05-09T04:01:15.776Z,20.23
2023-05-09T04:03:43.138Z,20.98
2023-05-09T04:06:11.057Z,20.75
2023-05-09T04:08:42.789Z,21.90
2023-05-09T04:11:09.826Z,25.33
2023-05-09T04:13:38.608Z,21.10
2023-05-09T04:16:13.550Z,22.23
2023-05-09T04:18:42.279Z,22.70
2023-05-09T04:21:09.480Z,22.25
2023-05-09T04:23:38.615Z,22.25
2023-05-09T04:26:05.537Z,23.10
2023-05-09T04:28:32.270Z,28.67
2023-05-09T04:30:59.555Z,24.08
2023-05-09T04:33:29.276Z,24.45
2023-05-09T04:36:00.341Z,27.77
2023-05-09T04:38:27.657Z,23.85
2023-05-09T04:40:54.579Z,24.50
2023-05-09T04:43:21.476Z,23.52
2023-05-09T04:45:48.296Z,26.65
2023-05-09T04:48:15.990Z,25.02
2023-05-09T04:50:43.319Z,23.02
2023-05-09T04:53:11.217Z,25.55
2023-05-09T04:55:38.574Z,23.73
2023-05-09T04:58:05.919Z,23.65
2023-05-09T05:00:32.667Z,28.00
2023-05-09T05:02:59.576Z,24.48
2023-05-09T05:05:28.011Z,22.70
2023-05-09T05:07:55.171Z,23.25
2023-05-09T05:10:26.300Z,29.08
2023-05-09T05:13:01.439Z,23.38
2023-05-09T05:15:28.256Z,26.55
2023-05-09T05:17:55.851Z,28.50
2023-05-09T05:20:28.308Z,25.55
2023-05-09T05:22:55.967Z,24.60
2023-05-09T05:25:23.476Z,25.48
2023-05-09T05:27:51.994Z,25.70
2023-05-09T05:30:18.865Z,27.83
2023-05-09T05:32:45.965Z,24.98
2023-05-09T05:35:15.940Z,25.17
2023-05-09T05:37:44.221Z,28.50
2023-05-09T05:40:11.682Z,24.20
2023-05-09T05:42:42.002Z,25.65
2023-05-09T05:45:11.042Z,24.08
2023-05-09T05:47:41.002Z,25.70
2023-05-09T05:50:11.635Z,25.63
2023-05-09T05:52:41.799Z,28.48
2023-05-09T05:55:12.176Z,25.80
2023-05-09T05:57:39.402Z,24.67
2023-05-09T06:00:12.217Z,25.10
2023-05-09T06:02:50.114Z,24.65
2023-05-09T06:05:25.675Z,23.95
2023-05-09T06:07:52.845Z,25.13
2023-05-09T06:10:19.800Z,24.60
2023-05-09T06:12:46.837Z,24.15
2023-05-09T06:15:13.841Z,26.60
2023-05-09T06:17:44.826Z,23.38
2023-05-09T06:20:11.620Z,25.67
2023-05-09T06:22:38.468Z,25.20
2023-05-09T06:25:08.027Z,27.02
2023-05-09T06:27:36.417Z,25.23
2023-05-09T06:30:14.032Z,26.95
2023-05-09T06:32:44.628Z,25.65
2023-05-09T06:35:11.365Z,25.70
2023-05-09T06:37:38.188Z,27.17
2023-05-09T06:40:05.486Z,25.30
2023-05-09T06:42:33.760Z,34.08
2023-05-09T06:45:00.824Z,27.33
2023-05-09T06:47:27.602Z,23.92
2023-05-09T06:49:54.541Z,28.05
2023-05-09T06:52:21.594Z,25.30
2023-05-09T06:54:48.373Z,25.70
2023-05-09T06:57:15.673Z,25.60
2023-05-09T06:59:42.490Z,25.85
2023-05-09T07:02:09.199Z,26.15
2023-05-09T07:04:35.954Z,25.35
2023-05-09T07:07:02.668Z,26.38
2023-05-09T07:09:29.578Z,24.27
2023-05-09T07:11:57.025Z,23.35
2023-05-09T07:14:23.779Z,24.60
2023-05-09T07:16:50.713Z,24.45
2023-05-09T07:19:17.539Z,24.45
2023-05-09T07:21:44.680Z,26.60
2023-05-09T07:24:11.345Z,26.10
2023-05-09T07:26:38.073Z,25.75
2023-05-09T07:29:04.978Z,28.38
2023-05-09T07:31:31.842Z,26.83
2023-05-09T07:33:58.526Z,29.30
2023-05-09T07:36:25.333Z,29.77
2023-05-09T07:38:53.422Z,26.90
2023-05-09T07:41:20.538Z,31.35
2023-05-09T07:43:47.242Z,33.90
2023-05-09T07:46:13.985Z,31.35
2023-05-09T07:48:40.722Z,29.35
2023-05-09T07:51:07.405Z,33.40
2023-05-09T07:53:34.122Z,35.30
2023-05-09T07:56:00.931Z,36.03
2023-05-09T07:58:27.572Z,39.13
2023-05-09T08:00:56.801Z,34.70
2023-05-09T08:03:23.616Z,33.72
2023-05-09T08:05:54.573Z,34.80
2023-05-09T08:08:21.485Z,37.30
2023-05-09T08:10:48.138Z,38.85
2023-05-09T08:13:14.963Z,39.75
2023-05-09T08:15:42.029Z,42.15
2023-05-09T08:18:08.928Z,38.90
2023-05-09T08:20:36.171Z,40.60
2023-05-09T08:23:02.839Z,38.95
2023-05-09T08:25:29.726Z,42.58
2023-05-09T08:27:56.495Z,44.90
2023-05-09T08:30:23.207Z,44.33
2023-05-09T08:32:49.893Z,46.78
2023-05-09T08:35:16.999Z,45.95
2023-05-09T08:37:44.238Z,41.33
2023-05-09T08:40:11.366Z,48.45
2023-05-09T08:42:38.652Z,49.92
2023-05-09T08:45:10.756Z,49.92
2023-05-09T08:47:38.481Z,45.75
2023-05-09T08:50:06.051Z,47.72
2023-05-09T08:52:33.637Z,53.90
2023-05-09T08:55:01.591Z,47.85
2023-05-09T08:57:28.521Z,48.42
2023-05-09T08:59:59.854Z,46.70
2023-05-09T09:02:26.748Z,54.28
2023-05-09T09:04:54.957Z,53.20
2023-05-09T09:07:22.534Z,53.97
2023-05-09T09:09:50.116Z,54.88
2023-05-09T09:12:17.557Z,58.17
2023-05-09T09:14:50.142Z,53.60
2023-05-09T09:17:20.580Z,53.85
2023-05-09T09:19:50.294Z,59.03
2023-05-09T09:22:20.379Z,52.92
2023-05-09T09:24:47.302Z,61.33
2023-05-09T09:27:14.025Z,55.17
2023-05-09T09:29:40.823Z,55.80
2023-05-09T09:32:07.774Z,55.85
2023-05-09T09:34:34.638Z,56.20
2023-05-09T09:37:01.545Z,54.83
2023-05-09T09:39:28.312Z,57.63
2023-05-09T09:41:55.114Z,49.85
2023-05-09T09:44:22.874Z,58.60
2023-05-09T09:46:53.538Z,56.60
2023-05-09T09:49:26.124Z,60.25
2023-05-09T09:51:54.974Z,60.88
2023-05-09T09:54:22.304Z,62.83
2023-05-09T09:56:54.785Z,66.22
2023-05-09T09:59:24.944Z,64.30
2023-05-09T10:02:05.849Z,65.78
2023-05-09T10:04:39.114Z,68.07
2023-05-09T10:07:12.884Z,65.50
2023-05-09T10:09:41.523Z,71.03
2023-05-09T10:12:09.034Z,77.72
2023-05-09T10:14:36.587Z,73.32
2023-05-09T10:17:05.660Z,69.30
2023-05-09T10:19:33.052Z,85.85
2023-05-09T10:22:11.620Z,79.03
2023-05-09T10:24:49.733Z,85.10
2023-05-09T10:27:21.055Z,84.72
2023-05-09T10:30:12.340Z,87.47
2023-05-09T10:32:46.168Z,102.10
2023-05-09T10:35:17.071Z,95.18
2023-05-09T10:37:45.446Z,92.60
2023-05-09T10:40:15.870Z,88.03
2023-05-09T10:42:43.591Z,87.72
2023-05-09T10:45:12.492Z,92.30
2023-05-09T10:47:41.486Z,89.40
2023-05-09T10:50:10.049Z,81.88
2023-05-09T10:53:07.193Z,86.07
2023-05-09T10:55:50.835Z,84.13
2023-05-09T10:58:28.794Z,91.93
2023-05-09T11:01:00.159Z,87.32
2023-05-09T11:03:28.948Z,96.28
2023-05-09T11:05:57.504Z,90.10
2023-05-09T11:08:29.140Z,96.13
2023-05-09T11:10:57.454Z,87.13
2023-05-09T11:13:26.107Z,91.18
2023-05-09T11:16:02.097Z,84.32
2023-05-09T11:18:29.638Z,88.00
2023-05-09T11:20:56.824Z,85.88
2023-05-09T11:23:27.871Z,83.72
2023-05-09T11:26:06.541Z,81.05
2023-05-09T11:28:35.513Z,81.43
2023-05-09T11:31:18.764Z,84.38
2023-05-09T11:33:49.156Z,72.55
2023-05-09T11:36:24.992Z,76.68
2023-05-09T11:39:01.538Z,82.97
2023-05-09T11:41:28.996Z,72.22
2023-05-09T11:43:56.872Z,85.75
2023-05-09T11:46:23.835Z,79.90
2023-05-09T11:48:50.550Z,82.97
2023-05-09T11:51:18.637Z,87.70
2023-05-09T11:53:49.657Z,89.97
2023-05-09T11:56:17.313Z,88.50
2023-05-09T11:58:44.140Z,93.47
2023-05-09T12:01:12.532Z,92.20
2023-05-09T12:03:46.228Z,89.97
2023-05-09T12:06:17.109Z,88.65
2023-05-09T12:08:47.966Z,88.18
2023-05-09T12:11:15.468Z,84.43
2023-05-09T12:13:49.467Z,97.05
2023-05-09T12:16:17.419Z,86.05
2023-05-09T12:18:45.880Z,85.40
2023-05-09T12:21:12.730Z,81.25
2023-05-09T12:23:39.621Z,71.88
2023-05-09T12:26:06.911Z,63.78
2023-05-09T12:28:35.443Z,59.35
2023-05-09T12:31:02.890Z,61.78
2023-05-09T12:33:30.845Z,54.42
2023-05-09T12:36:12.993Z,64.43
2023-05-09T12:38:39.982Z,62.70
2023-05-09T12:41:15.527Z,57.88
2023-05-09T12:43:50.773Z,51.72
2023-05-09T12:46:22.030Z,53.45
2023-05-09T12:48:49.328Z,55.65
2023-05-09T12:51:20.660Z,51.65
2023-05-09T12:53:47.916Z,55.88
2023-05-09T12:56:20.223Z,55.53
2023-05-09T13:01:19.270Z,54.60
2023-05-09T13:04:01.675Z,59.47
2023-05-09T13:06:28.724Z,54.92
2023-05-09T13:09:00.442Z,55.25
2023-05-09T13:11:27.732Z,57.70
2023-05-09T13:13:55.089Z,59.78
2023-05-09T13:16:21.968Z,61.78
2023-05-09T13:18:48.703Z,57.47
2023-05-09T13:21:15.619Z,53.90
2023-05-09T13:23:42.347Z,55.70
2023-05-09T13:26:10.410Z,56.40
2023-05-09T13:28:37.285Z,54.58
2023-05-09T13:31:04.188Z,55.97
2023-05-09T13:33:31.015Z,51.28
2023-05-09T13:35:57.749Z,52.50
2023-05-09T13:38:25.788Z,49.13
2023-05-09T13:40:52.554Z,51.25
2023-05-09T13:43:19.285Z,50.53
2023-05-09T13:45:46.087Z,55.63
2023-05-09T13:48:12.872Z,57.28
2023-05-09T13:50:40.272Z,52.78
2023-05-09T13:53:06.948Z,57.20
2023-05-09T13:55:34.607Z,52.90
2023-05-09T13:58:01.643Z,52.53
2023-05-09T14:00:28.595Z,51.35
2023-05-09T14:02:55.317Z,53.97
2023-05-09T14:05:22.648Z,52.72
2023-05-09T14:07:49.480Z,53.95
2023-05-09T14:10:17.638Z,54.60
2023-05-09T14:12:45.474Z,49.47
2023-05-09T14:15:12.452Z,49.80
2023-05-09T14:17:39.950Z,31.52
2023-05-09T14:20:07.251Z,27.58
2023-05-09T14:22:33.962Z,27.95
2023-05-09T14:25:00.667Z,29.05
2023-05-09T14:27:27.515Z,29.15
2023-05-09T14:29:54.379Z,23.83
2023-05-09T14:32:21.137Z,25.52
2023-05-09T14:34:49.635Z,32.30
2023-05-09T14:37:16.850Z,23.08
2023-05-09T14:39:45.221Z,26.15
2023-05-09T14:42:13.932Z,21.83
2023-05-09T14:44:41.527Z,23.90
2023-05-09T14:47:09.546Z,28.63
2023-05-09T14:49:37.722Z,24.08
2023-05-09T14:52:04.651Z,23.17
2023-05-09T14:54:31.531Z,23.63
2023-05-09T14:56:59.610Z,26.35
2023-05-09T14:59:26.404Z,24.45
2023-05-09T15:01:53.655Z,22.60
2023-05-09T15:04:20.384Z,22.48
2023-05-09T15:06:47.171Z,22.08
2023-05-09T15:09:14.652Z,22.52
2023-05-09T15:11:47.609Z,21.65
2023-05-09T15:14:15.112Z,27.10
2023-05-09T15:16:42.147Z,24.40
2023-05-09T15:19:09.089Z,24.23
2023-05-09T15:21:35.941Z,21.23
2023-05-09T15:24:04.901Z,21.70
2023-05-09T15:26:32.081Z,23.08
2023-05-09T15:29:02.510Z,22.55
2023-05-09T15:31:33.546Z,23.17
2023-05-09T15:34:01.418Z,20.60
2023-05-09T15:36:32.057Z,23.02
2023-05-09T15:38:58.894Z,18.38
2023-05-09T15:41:25.787Z,16.67
2023-05-09T15:43:52.847Z,16.48
2023-05-09T15:46:19.614Z,18.85
2023-05-09T15:48:46.498Z,19.38
2023-05-09T15:51:14.990Z,17.08
2023-05-09T15:53:41.912Z,16.08
2023-05-09T15:56:08.927Z,15.07
2023-05-09T15:58:36.025Z,16.40
2023-05-09T16:01:06.077Z,15.98
2023-05-09T16:03:33.034Z,14.35
2023-05-09T16:06:00.260Z,15.25
2023-05-09T16:08:27.332Z,14.52
2023-05-09T16:10:54.289Z,16.52
2023-05-09T16:13:21.298Z,14.77
2023-05-09T16:15:49.900Z,15.68
2023-05-09T16:18:16.671Z,14.88
2023-05-09T16:20:44.018Z,13.25
2023-05-09T16:23:11.433Z,16.35
2023-05-09T16:25:38.287Z,13.50
2023-05-09T16:28:06.890Z,14.27
2023-05-09T16:30:33.810Z,14.45
2023-05-09T16:33:00.719Z,13.35
2023-05-09T16:35:27.503Z,12.68
2023-05-09T16:37:54.156Z,12.13
2023-05-09T16:40:21.198Z,10.35
2023-05-09T16:42:48.088Z,12.85
2023-05-09T16:45:14.829Z,11.15
2023-05-09T16:47:41.556Z,8.05
2023-05-09T16:50:10.161Z,6.45
2023-05-09T16:52:37.122Z,5.95
2023-05-09T16:55:04.350Z,5.95
2023-05-09T16:57:31.064Z,7.43
2023-05-09T16:59:58.462Z,5.80
2023-05-09T17:02:25.310Z,4.68
2023-05-09T17:04:52.454Z,6.07
2023-05-09T17:07:19.232Z,4.72
2023-05-09T17:09:46.416Z,4.80
2023-05-09T17:12:17.431Z,4.72
2023-05-09T17:14:48.005Z,7.13
2023-05-09T17:17:17.489Z,5.03
2023-05-09T17:19:44.237Z,6.00
2023-05-09T17:22:11.226Z,6.43
2023-05-09T17:24:37.974Z,5.00
2023-05-09T17:27:04.960Z,5.15
2023-05-09T17:29:31.772Z,4.88
2023-05-09T17:32:01.979Z,5.53
2023-05-09T17:34:29.121Z,3.88
2023-05-09T17:36:56.281Z,4.45
2023-05-09T17:39:23.129Z,5.82
2023-05-09T17:41:49.828Z,5.35
2023-05-09T17:44:16.671Z,4.68
2023-05-09T17:46:44.004Z,4.68
2023-05-09T17:49:13.680Z,5.07
2023-05-09T17:51:40.786Z,5.25
2023-05-09T17:54:07.641Z,5.57
2023-05-09T17:56:34.744Z,7.70
2023-05-09T17:59:01.518Z,5.53
2023-05-09T18:01:34.291Z,4.82
2023-05-09T18:04:01.328Z,6.10
2023-05-09T18:06:28.874Z,5.20
2023-05-09T18:08:55.711Z,4.93
2023-05-09T18:11:22.766Z,4.97
2023-05-09T18:13:49.545Z,5.97
2023-05-09T18:16:16.240Z,5.75
2023-05-09T18:18:44.867Z,4.68
2023-05-09T18:21:11.673Z,5.28
2023-05-09T18:23:38.631Z,4.90
2023-05-09T18:26:05.337Z,4.72
2023-05-09T18:28:38.978Z,4.60
2023-05-09T18:31:09.221Z,5.78
2023-05-09T18:33:36.761Z,4.40
2023-05-09T18:36:04.090Z,5.80
2023-05-09T18:38:34.655Z,5.40
2023-05-09T18:41:01.709Z,6.07
2023-05-09T18:43:29.749Z,4.82
2023-05-09T18:45:56.455Z,4.47
2023-05-09T18:48:23.177Z,5.13
2023-05-09T18:50:52.629Z,7.13
2023-05-09T18:53:19.741Z,5.20
2023-05-09T18:55:46.988Z,4.25
2023-05-09T18:58:13.862Z,3.83
2023-05-09T19:00:40.739Z,3.97
2023-05-09T19:03:10.755Z,3.90
2023-05-09T19:05:37.502Z,4.18
2023-05-09T19:08:04.520Z,3.72
2023-05-09T19:10:31.487Z,5.70
2023-05-09T19:12:59.242Z,4.25
2023-05-09T19:15:26.647Z,3.63
2023-05-09T19:17:53.729Z,4.05
2023-05-09T19:20:20.867Z,4.20
2023-05-09T19:22:51.213Z,5.25
2023-05-09T19:25:22.566Z,4.20
2023-05-09T19:27:49.508Z,4.85
2023-05-09T19:30:17.047Z,5.75
2023-05-09T19:32:44.591Z,6.53
2023-05-09T19:35:11.728Z,4.78
2023-05-09T19:37:38.536Z,5.63
2023-05-09T19:40:06.277Z,6.63
2023-05-09T19:42:34.131Z,5.45
2023-05-09T19:45:01.524Z,5.60
2023-05-09T19:47:28.267Z,4.95
2023-05-09T19:49:55.030Z,5.90
2023-05-09T19:52:23.210Z,6.00
2023-05-09T19:54:50.324Z,6.20
2023-05-09T19:57:17.667Z,6.13
2023-05-09T19:59:44.747Z,5.90
2023-05-09T20:02:11.643Z,7.65
2023-05-09T20:04:46.499Z,5.50
2023-05-09T20:07:16.569Z,5.07
2023-05-09T20:09:43.519Z,5.35
2023-05-09T20:12:10.515Z,7.75
2023-05-09T20:14:37.251Z,6.65
2023-05-09T20:17:05.162Z,5.20
2023-05-09T20:19:33.034Z,5.57
2023-05-09T20:22:01.139Z,6.68
2023-05-09T20:24:27.993Z,5.88
2023-05-09T20:26:55.182Z,5.55
2023-05-09T20:29:23.967Z,6.85
2023-05-09T20:31:50.820Z,6.63
2023-05-09T20:34:22.349Z,7.15
2023-05-09T20:36:53.104Z,6.55
2023-05-09T20:39:20.628Z,6.60
2023-05-09T20:41:49.010Z,6.78
2023-05-09T20:44:16.794Z,7.78
2023-05-09T20:46:44.982Z,6.82
2023-05-09T20:49:12.365Z,6.82
2023-05-09T20:51:39.320Z,9.73
2023-05-09T20:54:06.424Z,7.82
2023-05-09T20:56:35.221Z,7.60
2023-05-09T20:59:03.977Z,7.38
2023-05-09T21:01:37.201Z,8.27
2023-05-09T21:04:05.593Z,7.97
2023-05-09T21:06:32.970Z,7.72
2023-05-09T21:08:59.683Z,7.90
2023-05-09T21:11:26.380Z,7.63
2023-05-09T21:13:53.005Z,7.88
2023-05-09T21:16:20.075Z,7.68
2023-05-09T21:18:46.774Z,10.55
2023-05-09T21:21:13.444Z,7.88
2023-05-09T21:23:41.428Z,6.70
2023-05-09T21:26:08.110Z,7.03
2023-05-09T21:28:34.780Z,6.82
2023-05-09T21:31:01.676Z,6.45
2023-05-09T21:33:28.555Z,7.75
2023-05-09T21:35:55.527Z,6.82
2023-05-09T21:38:22.455Z,7.18
2023-05-09T21:40:51.262Z,7.28
2023-05-09T21:43:18.225Z,7.18
2023-05-09T21:45:45.520Z,7.22
2023-05-09T21:48:12.386Z,7.40
2023-05-09T21:50:39.253Z,6.97
2023-05-09T21:53:06.350Z,7.05
2023-05-09T21:55:33.040Z,8.00
2023-05-09T21:57:59.766Z,7.32
2023-05-09T22:00:26.470Z,8.43
2023-05-09T22:02:53.236Z,7.15
2023-05-09T22:05:19.976Z,7.90
2023-05-09T22:07:46.736Z,8.55
2023-05-09T22:10:13.733Z,8.18
2023-05-09T22:12:40.598Z,9.13
2023-05-09T22:15:08.968Z,8.05
2023-05-09T22:17:35.949Z,8.52
2023-05-09T22:20:03.032Z,9.20
2023-05-09T22:22:29.825Z,8.68
2023-05-09T22:24:56.645Z,10.02
2023-05-09T22:27:23.376Z,10.38
2023-05-09T22:29:50.225Z,9.70
2023-05-09T22:32:17.041Z,8.85
2023-05-09T22:34:47.879Z,9.20
2023-05-09T22:37:14.833Z,9.02
2023-05-09T22:39:45.618Z,8.10
2023-05-09T22:42:12.444Z,9.50
2023-05-09T22:44:39.502Z,9.98
2023-05-09T22:47:10.250Z,10.00
2023-05-09T22:49:37.411Z,10.48
2023-05-09T22:52:04.382Z,10.00
2023-05-09T22:54:31.089Z,9.02
2023-05-09T22:56:57.852Z,11.68
2023-05-09T22:59:24.657Z,8.82
2023-05-09T23:01:51.809Z,9.30
2023-05-09T23:04:18.575Z,9.57
2023-05-09T23:06:45.561Z,9.30
2023-05-09T23:09:12.320Z,8.15
2023-05-09T23:11:39.015Z,9.40
2023-05-09T23:14:06.442Z,9.93
2023-05-09T23:16:33.204Z,10.57
2023-05-09T23:19:00.141Z,9.57
2023-05-09T23:21:26.894Z,9.60
2023-05-09T23:23:53.670Z,10.40
2023-05-09T23:26:21.120Z,10.98
2023-05-09T23:28:47.773Z,9.13
2023-05-09T23:31:14.433Z,9.70
2023-05-09T23:33:41.127Z,11.55
2023-05-09T23:36:08.206Z,9.02
2023-05-09T23:38:34.961Z,9.40
2023-05-09T23:41:01.897Z,9.68
2023-05-09T23:43:28.959Z,8.98
2023-05-09T23:45:56.634Z,10.00
2023-05-09T23:48:23.839Z,10.93
2023-05-09T23:50:51.519Z,9.20
2023-05-09T23:53:18.303Z,10.13
2023-05-09T23:55:45.038Z,11.40
2023-05-09T23:58:12.307Z,11.25
